Time;durP1;ratioP1;P1;durP2;ratioP2;P2;SDS_P1;SDS_P2;PMS_P1;PMS_P2;Temp;Humidity;BMP_temperature;BMP_pressure;BME280_temperature;BME280_humidity;BME280_pressure;Samples;Min_cycle;Max_cycle;Signal;HPM_P1;HPM_P2
2023/08/25 00:02:20;;;;;;;2.20;1.90;;;19.20;99.90;;;;;;5114154;28;20471;-84
2023/08/25 00:04:47;;;;;;;1.30;1.07;;;19.20;99.90;;;;;;5113732;28;20482;-84
2023/08/25 00:07:14;;;;;;;1.40;0.90;;;19.10;99.90;;;;;;5113883;28;20956;-83
2023/08/25 00:09:41;;;;;;;1.33;1.10;;;19.20;99.90;;;;;;5114364;28;20447;-84
2023/08/25 00:12:09;;;;;;;1.27;1.27;;;19.30;99.90;;;;;;5113809;28;20936;-83
2023/08/25 00:14:36;;;;;;;1.40;1.30;;;19.30;99.90;;;;;;5113705;28;20962;-83
2023/08/25 00:17:03;;;;;;;1.90;1.17;;;19.30;99.90;;;;;;5114000;28;20940;-84
2023/08/25 00:19:30;;;;;;;3.00;1.40;;;19.30;99.90;;;;;;5114017;28;20459;-83
2023/08/25 00:21:56;;;;;;;1.13;1.13;;;19.30;99.90;;;;;;5114094;28;20483;-83
2023/08/25 00:24:23;;;;;;;1.10;1.00;;;19.30;99.90;;;;;;5113630;28;20950;-84
2023/08/25 00:26:50;;;;;;;1.43;1.07;;;19.30;99.90;;;;;;5113467;28;20435;-83
2023/08/25 00:29:20;;;;;;;1.03;0.80;;;19.30;99.90;;;;;;5113614;28;20447;-84
2023/08/25 00:31:46;;;;;;;1.43;0.80;;;19.30;99.90;;;;;;5114228;28;20435;-84
2023/08/25 00:34:13;;;;;;;0.90;0.80;;;19.30;99.90;;;;;;5113850;28;20446;-84
2023/08/25 00:36:40;;;;;;;1.30;1.20;;;19.40;99.90;;;;;;5113767;28;20821;-84
2023/08/25 00:39:07;;;;;;;2.20;1.23;;;19.40;99.90;;;;;;5114051;28;20445;-83
2023/08/25 00:41:34;;;;;;;1.50;1.40;;;19.30;99.90;;;;;;5113426;28;20474;-83
2023/08/25 00:44:00;;;;;;;9.57;0.90;;;19.40;99.90;;;;;;5113494;28;20442;-84
2023/08/25 00:46:29;;;;;;;3.50;1.27;;;19.40;99.90;;;;;;5113605;28;20463;-83
2023/08/25 00:48:56;;;;;;;2.00;1.20;;;19.40;99.90;;;;;;5113733;28;20439;-84
2023/08/25 00:51:23;;;;;;;0.80;0.80;;;19.40;99.90;;;;;;5113762;28;20801;-84
2023/08/25 00:53:50;;;;;;;1.77;0.90;;;19.30;99.90;;;;;;5113706;28;20439;-84
2023/08/25 00:56:18;;;;;;;2.57;1.17;;;19.40;99.90;;;;;;5113631;28;20474;-85
2023/08/25 00:58:45;;;;;;;0.97;0.80;;;19.40;99.90;;;;;;5113695;28;20435;-85
2023/08/25 01:01:13;;;;;;;1.60;0.87;;;19.40;99.90;;;;;;5113677;28;20498;-84
2023/08/25 01:03:42;;;;;;;1.10;1.10;;;19.40;99.90;;;;;;5113050;28;20999;-84
2023/08/25 01:06:09;;;;;;;1.30;0.97;;;19.40;99.90;;;;;;5113478;28;20467;-84
2023/08/25 01:08:37;;;;;;;1.00;1.00;;;19.40;99.90;;;;;;5113573;28;20833;-85
2023/08/25 01:11:18;;;;;;;1.47;1.37;;;19.40;99.90;;;;;;5113609;28;20439;-85
2023/08/25 01:13:58;;;;;;;0.93;0.60;;;19.40;99.90;;;;;;5113289;28;20412;-85
2023/08/25 01:16:30;;;;;;;0.83;0.83;;;19.40;99.90;;;;;;5113471;28;20459;-85
2023/08/25 01:19:01;;;;;;;0.97;0.90;;;19.30;99.90;;;;;;5113487;28;20419;-85
2023/08/25 01:21:27;;;;;;;3.87;1.50;;;19.30;99.90;;;;;;5113311;28;20471;-85
2023/08/25 01:24:04;;;;;;;0.90;0.90;;;19.30;99.90;;;;;;5113396;28;20443;-86
2023/08/25 01:26:32;;;;;;;0.60;0.60;;;19.30;99.90;;;;;;5113431;28;20466;-84
2023/08/25 01:28:59;;;;;;;1.17;0.90;;;19.30;99.90;;;;;;5113407;28;20439;-84
2023/08/25 01:31:26;;;;;;;1.37;1.10;;;19.30;99.90;;;;;;5113043;28;20450;-84
2023/08/25 01:33:55;;;;;;;1.00;0.80;;;19.30;99.90;;;;;;5113337;28;20439;-85
2023/08/25 01:36:29;;;;;;;1.10;0.93;;;19.30;99.90;;;;;;5113357;28;20510;-85
2023/08/25 01:39:04;;;;;;;0.90;0.80;;;19.20;99.90;;;;;;5114666;28;20428;-85
2023/08/25 01:41:41;;;;;;;1.07;0.97;;;19.20;99.90;;;;;;5116948;28;20900;-84
2023/08/25 01:44:08;;;;;;;1.07;1.07;;;19.30;99.90;;;;;;5116630;28;20462;-85
2023/08/25 01:46:37;;;;;;;1.27;0.90;;;19.30;99.90;;;;;;5117197;28;20503;-84
2023/08/25 01:49:07;;;;;;;4.80;1.10;;;19.20;99.90;;;;;;5116920;28;20427;-85
2023/08/25 01:51:34;;;;;;;0.70;0.70;;;19.30;99.90;;;;;;5116789;28;20563;-85
2023/08/25 01:54:01;;;;;;;1.10;0.80;;;19.30;99.90;;;;;;5116877;28;20560;-85
2023/08/25 01:56:28;;;;;;;0.87;0.83;;;19.30;99.90;;;;;;5116817;28;20467;-85
2023/08/25 01:58:56;;;;;;;0.80;0.80;;;19.30;99.90;;;;;;5116675;28;20454;-84
2023/08/25 02:01:23;;;;;;;0.90;0.90;;;19.30;99.90;;;;;;5116714;28;20801;-87
2023/08/25 02:03:49;;;;;;;3.33;1.10;;;19.30;99.90;;;;;;5116313;28;20474;-85
2023/08/25 02:06:16;;;;;;;1.63;1.10;;;19.30;99.90;;;;;;5116527;28;20463;-85
2023/08/25 02:08:43;;;;;;;0.80;0.80;;;19.30;99.90;;;;;;5116543;28;20804;-85
2023/08/25 02:11:10;;;;;;;0.97;0.83;;;19.30;99.90;;;;;;5116465;28;20443;-85
2023/08/25 02:13:37;;;;;;;3.03;0.90;;;19.30;99.90;;;;;;5116023;28;20450;-85
2023/08/25 02:16:05;;;;;;;1.40;0.77;;;19.30;99.90;;;;;;5116093;28;20996;-85
2023/08/25 02:18:31;;;;;;;1.33;1.10;;;19.30;99.90;;;;;;5116364;28;20936;-85
2023/08/25 02:20:58;;;;;;;0.90;0.90;;;19.40;99.90;;;;;;5116235;28;20454;-86
2023/08/25 02:23:25;;;;;;;1.10;0.80;;;19.30;99.90;;;;;;5116088;28;20477;-85
2023/08/25 02:25:52;;;;;;;1.27;1.17;;;19.30;99.90;;;;;;5116338;28;20471;-85
2023/08/25 02:28:19;;;;;;;1.00;0.90;;;19.30;99.90;;;;;;5115961;28;20982;-85
2023/08/25 02:30:46;;;;;;;1.27;1.00;;;19.30;99.90;;;;;;5116243;28;20447;-85
2023/08/25 02:33:15;;;;;;;1.27;1.17;;;19.40;99.90;;;;;;5116182;27;20451;-85
2023/08/25 02:35:42;;;;;;;1.10;0.80;;;19.40;99.90;;;;;;5115950;28;20463;-85
2023/08/25 02:38:10;;;;;;;1.00;1.00;;;19.40;99.90;;;;;;5116239;28;20439;-86
2023/08/25 02:40:38;;;;;;;3.97;0.90;;;19.40;99.90;;;;;;5124986;28;20440;-86
2023/08/25 02:43:06;;;;;;;6.60;1.17;;;19.40;99.90;;;;;;5116158;28;20479;-86
2023/08/25 02:45:33;;;;;;;2.00;1.00;;;19.40;99.90;;;;;;5115831;28;20459;-86
2023/08/25 02:48:01;;;;;;;1.27;1.03;;;19.40;99.90;;;;;;5116126;27;20444;-86
2023/08/25 02:50:29;;;;;;;3.50;0.80;;;19.40;99.90;;;;;;5115132;28;20494;-86
2023/08/25 02:52:56;;;;;;;1.00;0.80;;;19.30;99.90;;;;;;5115704;28;20439;-86
2023/08/25 02:55:23;;;;;;;1.00;0.93;;;19.40;99.90;;;;;;5115250;28;20473;-86
2023/08/25 02:57:51;;;;;;;1.80;1.07;;;19.40;99.90;;;;;;5115835;28;20438;-86
2023/08/25 03:00:20;;;;;;;1.90;1.27;;;19.40;99.90;;;;;;5115646;28;20439;-86
2023/08/25 03:02:47;;;;;;;1.27;0.80;;;19.40;99.90;;;;;;5115471;28;20487;-86
2023/08/25 03:05:14;;;;;;;1.13;1.00;;;19.40;99.90;;;;;;5115845;28;20451;-86
2023/08/25 03:07:42;;;;;;;0.90;0.90;;;19.40;99.90;;;;;;5115640;28;20442;-86
2023/08/25 03:10:10;;;;;;;2.20;0.70;;;19.40;99.90;;;;;;5115535;28;20807;-86
2023/08/25 03:12:37;;;;;;;1.20;1.10;;;19.40;99.90;;;;;;5115595;28;20442;-86
2023/08/25 03:15:04;;;;;;;2.60;1.13;;;19.40;99.90;;;;;;5115579;28;20828;-86
2023/08/25 03:17:31;;;;;;;2.83;0.90;;;19.40;99.90;;;;;;5115605;28;20450;-86
2023/08/25 03:19:57;;;;;;;1.10;1.00;;;19.40;99.90;;;;;;5115594;28;20445;-86
2023/08/25 03:22:24;;;;;;;4.33;0.77;;;19.50;99.90;;;;;;5115640;28;20474;-85
2023/08/25 03:24:52;;;;;;;1.03;0.93;;;19.50;99.90;;;;;;5122173;28;20466;-86
2023/08/25 03:27:19;;;;;;;1.30;1.20;;;19.50;99.90;;;;;;5124782;28;20431;-86
2023/08/25 03:29:46;;;;;;;1.90;0.70;;;19.50;99.90;;;;;;5123282;28;20446;-87
2023/08/25 03:32:12;;;;;;;1.77;1.03;;;19.50;99.90;;;;;;5124266;28;20440;-87
2023/08/25 03:34:39;;;;;;;5.03;1.30;;;19.50;99.90;;;;;;5128057;28;20880;-86
2023/08/25 03:37:07;;;;;;;1.33;0.83;;;19.40;99.90;;;;;;5125421;28;20454;-87
2023/08/25 03:39:33;;;;;;;1.20;1.10;;;19.40;99.90;;;;;;5127323;28;20499;-86
2023/08/25 03:42:02;;;;;;;1.47;0.90;;;19.40;99.90;;;;;;5124160;28;20470;-86
2023/08/25 03:44:29;;;;;;;0.90;0.90;;;19.40;99.90;;;;;;5119535;28;20546;-86
2023/08/25 03:46:56;;;;;;;1.20;1.10;;;19.40;99.90;;;;;;5115793;27;20446;-86
2023/08/25 03:49:23;;;;;;;5.40;1.27;;;19.40;99.90;;;;;;5115343;27;20781;-86
2023/08/25 03:51:50;;;;;;;4.77;1.87;;;19.40;99.90;;;;;;5115048;28;20989;-86
2023/08/25 03:54:17;;;;;;;0.80;0.80;;;19.40;99.90;;;;;;5115264;28;20490;-86
2023/08/25 03:56:43;;;;;;;1.87;1.20;;;19.40;99.90;;;;;;5114718;28;20463;-86
2023/08/25 03:59:11;;;;;;;8.23;1.27;;;19.50;99.90;;;;;;5114813;28;20446;-86
2023/08/25 04:01:38;;;;;;;1.10;1.10;;;19.50;99.90;;;;;;5114268;28;20450;-86
2023/08/25 04:04:05;;;;;;;1.07;1.00;;;19.50;99.90;;;;;;5113977;28;20491;-86
2023/08/25 04:06:31;;;;;;;1.63;1.20;;;19.50;99.90;;;;;;5114690;28;20470;-86
2023/08/25 04:08:59;;;;;;;1.30;1.20;;;19.50;99.90;;;;;;5114754;28;20444;-87
2023/08/25 04:11:26;;;;;;;4.53;1.47;;;19.50;99.90;;;;;;5114748;28;20447;-86
2023/08/25 04:13:53;;;;;;;1.40;1.10;;;19.50;99.90;;;;;;5114547;28;21009;-87
2023/08/25 04:16:21;;;;;;;1.10;0.83;;;19.50;99.90;;;;;;5116648;28;20470;-87
2023/08/25 04:18:48;;;;;;;0.90;0.90;;;19.50;99.90;;;;;;5114397;28;20943;-87
2023/08/25 04:21:14;;;;;;;3.73;1.70;;;19.40;99.90;;;;;;5114584;28;20797;-87
2023/08/25 04:23:41;;;;;;;1.53;1.43;;;19.40;99.90;;;;;;5114391;28;20486;-87
2023/08/25 04:26:08;;;;;;;1.87;0.80;;;19.40;99.90;;;;;;5114382;28;20829;-87
2023/08/25 04:28:34;;;;;;;0.90;0.80;;;19.40;99.90;;;;;;5114366;28;20438;-86
2023/08/25 04:31:02;;;;;;;1.53;1.10;;;19.40;99.90;;;;;;5114355;28;20454;-87
2023/08/25 04:33:30;;;;;;;1.60;0.83;;;19.70;99.90;;;;;;5114467;28;20451;-87
2023/08/25 04:35:57;;;;;;;1.27;0.90;;;19.30;99.90;;;;;;5114234;28;20470;-87
2023/08/25 04:38:24;;;;;;;2.47;1.03;;;19.30;99.90;;;;;;5115149;28;20443;-87
2023/08/25 04:40:50;;;;;;;2.27;1.30;;;19.30;99.90;;;;;;5114069;28;20443;-87
2023/08/25 04:43:17;;;;;;;1.43;1.33;;;19.30;99.90;;;;;;5114418;28;20483;-86
2023/08/25 04:45:44;;;;;;;1.37;0.97;;;19.30;99.90;;;;;;5113919;28;20466;-88
2023/08/25 04:48:10;;;;;;;2.10;1.27;;;19.30;99.90;;;;;;5114241;28;20450;-87
2023/08/25 04:50:38;;;;;;;0.80;0.80;;;19.30;99.90;;;;;;5114234;28;20435;-86
2023/08/25 04:53:05;;;;;;;1.20;1.10;;;19.30;99.90;;;;;;5114327;28;20435;-87
2023/08/25 04:55:32;;;;;;;1.50;1.40;;;19.30;99.90;;;;;;5114033;28;20467;-86
2023/08/25 04:57:59;;;;;;;1.47;1.00;;;19.30;99.90;;;;;;5114292;28;20443;-87
2023/08/25 05:00:25;;;;;;;2.03;1.40;;;19.30;99.90;;;;;;5114155;28;20443;-86
2023/08/25 05:02:52;;;;;;;1.93;1.40;;;19.40;99.90;;;;;;5113618;28;20477;-86
2023/08/25 05:05:19;;;;;;;1.20;0.80;;;19.40;99.90;;;;;;5114159;28;20463;-87
2023/08/25 05:07:47;;;;;;;1.53;1.10;;;19.40;99.90;;;;;;5113965;28;20435;-87
2023/08/25 05:10:14;;;;;;;2.73;1.00;;;19.40;99.90;;;;;;5113837;28;20939;-86
2023/08/25 05:12:40;;;;;;;1.37;1.27;;;19.50;99.90;;;;;;5113798;28;20804;-86
2023/08/25 05:15:08;;;;;;;3.40;1.83;;;19.50;99.90;;;;;;5116984;28;20894;-87
2023/08/25 05:17:35;;;;;;;1.07;0.93;;;19.60;99.90;;;;;;5117995;27;20442;-87
2023/08/25 05:20:02;;;;;;;1.83;1.40;;;19.60;99.90;;;;;;5118652;28;20446;-87
2023/08/25 05:22:29;;;;;;;2.33;0.93;;;19.60;99.90;;;;;;5118187;28;20449;-87
2023/08/25 05:24:57;;;;;;;2.00;1.03;;;19.70;99.90;;;;;;5118149;28;20465;-86
2023/08/25 05:27:24;;;;;;;2.00;1.53;;;19.80;99.90;;;;;;5118193;28;20438;-86
2023/08/25 05:29:51;;;;;;;1.43;1.33;;;19.90;99.90;;;;;;5118188;28;20443;-87
2023/08/25 05:32:17;;;;;;;1.30;1.20;;;19.90;99.90;;;;;;5117827;28;20820;-86
2023/08/25 05:34:44;;;;;;;1.80;1.40;;;20.00;99.90;;;;;;5117655;28;20459;-87
2023/08/25 05:37:11;;;;;;;1.43;0.90;;;20.10;99.90;;;;;;5117635;28;20501;-86
2023/08/25 05:39:37;;;;;;;1.00;0.80;;;20.20;99.90;;;;;;5117794;28;20447;-86
2023/08/25 05:42:07;;;;;;;1.63;1.53;;;20.20;99.90;;;;;;5117154;27;20947;-87
2023/08/25 05:44:35;;;;;;;1.93;1.03;;;20.30;99.90;;;;;;5117053;28;20474;-87
2023/08/25 05:47:03;;;;;;;5.43;1.37;;;20.30;99.90;;;;;;5117292;28;20792;-86
2023/08/25 05:49:30;;;;;;;1.13;1.03;;;20.40;99.90;;;;;;5117015;28;20451;-86
2023/08/25 05:51:56;;;;;;;2.57;1.20;;;20.40;99.90;;;;;;5117106;28;20447;-86
2023/08/25 05:54:23;;;;;;;1.23;1.13;;;20.50;99.90;;;;;;5116908;28;20939;-86
2023/08/25 05:56:50;;;;;;;0.87;0.87;;;20.50;99.90;;;;;;5118678;28;20427;-87
2023/08/25 05:59:18;;;;;;;1.67;1.57;;;20.60;99.90;;;;;;5117489;28;20431;-86
2023/08/25 06:01:45;;;;;;;4.83;1.80;;;20.60;99.90;;;;;;5116978;28;20443;-86
2023/08/25 06:04:11;;;;;;;2.27;0.83;;;20.60;99.90;;;;;;5116572;28;20486;-86
2023/08/25 06:06:38;;;;;;;1.03;1.03;;;20.60;99.90;;;;;;5116852;28;20462;-86
2023/08/25 06:09:08;;;;;;;1.50;1.40;;;20.60;99.90;;;;;;5116926;27;20566;-86
2023/08/25 06:11:35;;;;;;;3.67;1.30;;;20.60;99.90;;;;;;5117084;28;20487;-86
2023/08/25 06:14:02;;;;;;;4.30;1.60;;;20.60;99.90;;;;;;5116729;28;20435;-86
2023/08/25 06:16:30;;;;;;;3.30;1.20;;;20.60;99.90;;;;;;5116979;28;20550;-86
2023/08/25 06:18:56;;;;;;;1.90;1.37;;;20.60;99.90;;;;;;5116570;28;20450;-86
2023/08/25 06:21:23;;;;;;;4.97;2.03;;;20.60;99.90;;;;;;5116522;28;20442;-86
2023/08/25 06:23:50;;;;;;;5.40;1.43;;;20.50;99.90;;;;;;5116265;27;21007;-86
2023/08/25 06:26:17;;;;;;;1.97;1.33;;;20.50;99.90;;;;;;5115314;28;20463;-86
2023/08/25 06:28:44;;;;;;;1.73;1.17;;;20.50;99.90;;;;;;5116409;28;20443;-86
2023/08/25 06:31:10;;;;;;;1.70;1.47;;;20.50;99.90;;;;;;5116357;28;20822;-87
2023/08/25 06:33:39;;;;;;;3.77;1.20;;;20.50;99.90;;;;;;5115973;28;20936;-86
2023/08/25 06:36:06;;;;;;;1.73;1.60;;;20.50;99.90;;;;;;5116246;28;20463;-86
2023/08/25 06:38:33;;;;;;;1.40;1.13;;;20.50;99.90;;;;;;5116087;28;20450;-86
2023/08/25 06:41:00;;;;;;;1.43;1.20;;;20.50;99.90;;;;;;5115932;28;20445;-86
2023/08/25 06:43:26;;;;;;;2.20;1.47;;;20.40;99.90;;;;;;5115537;28;20471;-86
2023/08/25 06:45:54;;;;;;;2.30;1.43;;;20.30;99.90;;;;;;5115830;28;20458;-86
2023/08/25 06:48:20;;;;;;;1.97;1.37;;;20.20;99.90;;;;;;5115848;28;20459;-87
2023/08/25 06:50:49;;;;;;;10.83;1.57;;;20.00;99.90;;;;;;5115949;27;20439;-88
2023/08/25 06:53:15;;;;;;;3.20;1.43;;;19.90;99.90;;;;;;5115849;28;20936;-87
2023/08/25 06:55:42;;;;;;;1.63;1.10;;;19.70;99.90;;;;;;5115824;28;20506;-87
2023/08/25 06:58:09;;;;;;;4.73;1.70;;;19.60;99.90;;;;;;5115772;28;20458;-88
2023/08/25 07:00:36;;;;;;;7.33;1.50;;;19.50;99.90;;;;;;5116188;28;20447;-87
2023/08/25 07:03:03;;;;;;;2.77;2.00;;;19.40;99.90;;;;;;5115339;28;20796;-87
2023/08/25 07:05:30;;;;;;;2.37;1.00;;;19.40;99.90;;;;;;5115767;28;20463;-88
2023/08/25 07:07:58;;;;;;;3.00;2.00;;;19.40;99.90;;;;;;5116082;28;20447;-89
2023/08/25 07:10:26;;;;;;;2.30;1.30;;;19.30;99.90;;;;;;5115971;27;20450;-88
2023/08/25 07:12:52;;;;;;;2.60;1.37;;;19.30;99.90;;;;;;5115688;28;20806;-87
2023/08/25 07:15:19;;;;;;;2.27;1.17;;;19.30;99.90;;;;;;5115599;28;20462;-87
2023/08/25 07:17:47;;;;;;;3.23;1.50;;;19.30;99.90;;;;;;5115365;28;20438;-85
2023/08/25 07:20:14;;;;;;;3.73;1.93;;;19.30;99.90;;;;;;5115082;28;20447;-85
2023/08/25 07:22:41;;;;;;;5.50;1.33;;;19.30;99.90;;;;;;5115077;28;20454;-85
2023/08/25 07:25:09;;;;;;;1.10;1.00;;;19.30;99.90;;;;;;5114863;28;20987;-85
2023/08/25 07:27:36;;;;;;;1.50;1.40;;;19.20;99.90;;;;;;5114984;28;20800;-84
2023/08/25 07:30:04;;;;;;;4.00;1.63;;;19.20;99.90;;;;;;5114564;28;20441;-84
2023/08/25 07:32:31;;;;;;;1.30;1.20;;;19.20;99.90;;;;;;5114503;28;20821;-84
2023/08/25 07:34:57;;;;;;;1.23;1.13;;;19.10;99.90;;;;;;5114542;27;21010;-84
2023/08/25 07:37:25;;;;;;;1.20;1.10;;;19.10;99.90;;;;;;5114576;28;20450;-84
2023/08/25 07:39:52;;;;;;;1.53;1.30;;;19.00;99.90;;;;;;5114649;28;20466;-84
2023/08/25 07:42:22;;;;;;;2.40;1.57;;;19.00;99.90;;;;;;5114600;28;20443;-85
2023/08/25 07:44:50;;;;;;;5.60;1.50;;;19.00;99.90;;;;;;5114510;28;20483;-84
2023/08/25 07:47:17;;;;;;;2.40;1.27;;;18.90;99.90;;;;;;5114617;28;20438;-84
2023/08/25 07:49:43;;;;;;;1.40;1.30;;;18.90;99.90;;;;;;5114274;28;20892;-84
2023/08/25 07:52:10;;;;;;;1.50;1.40;;;18.80;99.90;;;;;;5114321;28;20443;-84
2023/08/25 07:54:37;;;;;;;2.13;1.20;;;18.80;99.90;;;;;;5114353;28;20439;-84
2023/08/25 07:57:04;;;;;;;9.53;2.10;;;18.90;99.90;;;;;;5114097;28;20928;-84
2023/08/25 07:59:33;;;;;;;1.83;1.00;;;18.80;99.90;;;;;;5114011;28;20991;-84
2023/08/25 08:02:00;;;;;;;1.30;1.20;;;18.80;99.90;;;;;;5114023;28;20963;-84
2023/08/25 08:04:26;;;;;;;1.37;1.27;;;19.10;99.90;;;;;;5113664;28;20886;-84
2023/08/25 08:06:53;;;;;;;0.80;0.80;;;18.80;99.90;;;;;;5113899;28;20812;-84
2023/08/25 08:09:20;;;;;;;2.90;1.20;;;18.80;99.90;;;;;;5114343;28;20439;-84
2023/08/25 08:11:47;;;;;;;2.20;1.37;;;18.70;99.90;;;;;;5114336;28;20439;-84
2023/08/25 08:14:13;;;;;;;1.40;0.90;;;18.60;99.90;;;;;;5114601;28;20446;-84
2023/08/25 08:16:41;;;;;;;1.37;1.27;;;18.50;99.90;;;;;;5114271;28;20459;-84
2023/08/25 08:19:10;;;;;;;2.50;1.33;;;18.40;99.90;;;;;;5113771;28;20955;-85
2023/08/25 08:21:36;;;;;;;1.80;1.20;;;18.40;99.90;;;;;;5113985;28;20454;-84
2023/08/25 08:24:03;;;;;;;1.67;1.30;;;18.30;99.90;;;;;;5114154;28;20479;-84
2023/08/25 08:26:30;;;;;;;1.23;1.10;;;18.30;99.90;;;;;;5113990;28;20463;-84
2023/08/25 08:28:57;;;;;;;2.00;1.40;;;18.30;99.90;;;;;;5113990;28;20439;-84
2023/08/25 08:31:23;;;;;;;0.97;0.97;;;18.30;99.90;;;;;;5114172;28;20442;-84
2023/08/25 08:33:51;;;;;;;1.37;1.17;;;18.30;99.90;;;;;;5114084;28;20458;-83
2023/08/25 08:36:19;;;;;;;1.23;1.13;;;18.30;99.90;;;;;;5114033;28;20459;-84
2023/08/25 08:38:45;;;;;;;1.53;0.90;;;18.40;99.90;;;;;;5114055;28;20481;-82
2023/08/25 08:41:14;;;;;;;2.70;0.90;;;18.60;99.90;;;;;;5114072;28;20428;-84
2023/08/25 08:43:43;;;;;;;1.30;0.97;;;18.50;99.90;;;;;;5113781;28;20482;-84
2023/08/25 08:46:14;;;;;;;1.53;1.03;;;18.50;99.90;;;;;;5113703;28;20470;-81
2023/08/25 08:48:41;;;;;;;3.33;1.10;;;18.40;99.90;;;;;;5114726;28;20450;-83
2023/08/25 08:51:11;;;;;;;3.37;1.30;;;18.50;99.90;;;;;;5117991;28;20439;-84
2023/08/25 08:53:38;;;;;;;4.50;1.30;;;18.50;99.90;;;;;;5118217;27;20442;-84
2023/08/25 08:56:07;;;;;;;1.43;1.33;;;18.50;99.90;;;;;;5118483;28;20468;-84
2023/08/25 08:58:34;;;;;;;2.40;1.50;;;18.50;99.90;;;;;;5119224;28;20779;-84
2023/08/25 09:01:03;;;;;;;2.40;0.70;;;18.50;99.90;;;;;;5119122;28;20802;-84
2023/08/25 09:03:34;;;;;;;1.33;1.23;;;18.40;99.90;;;;;;5119233;27;20540;-84
2023/08/25 09:06:03;;;;;;;3.23;1.27;;;18.40;99.90;;;;;;5119111;28;20455;-83
2023/08/25 09:08:31;;;;;;;0.80;0.80;;;18.40;99.90;;;;;;5118287;28;20498;-84
2023/08/25 09:11:00;;;;;;;4.03;1.27;;;18.40;99.90;;;;;;5119279;28;20451;-84
2023/08/25 09:13:27;;;;;;;2.03;0.80;;;18.50;99.90;;;;;;5119632;28;20526;-85
2023/08/25 09:15:54;;;;;;;1.23;1.13;;;18.40;99.90;;;;;;5119438;28;20529;-86
2023/08/25 09:18:21;;;;;;;1.30;1.17;;;18.40;99.90;;;;;;5119102;28;20495;-84
2023/08/25 09:20:48;;;;;;;1.07;0.97;;;18.40;99.90;;;;;;5119980;28;20445;-84
2023/08/25 09:23:15;;;;;;;1.30;1.20;;;18.40;99.90;;;;;;5118680;28;20446;-85
2023/08/25 09:25:44;;;;;;;1.83;1.03;;;18.50;99.90;;;;;;5118748;28;20490;-85
2023/08/25 09:28:10;;;;;;;2.30;1.20;;;18.60;99.90;;;;;;5117750;28;20443;-84
2023/08/25 09:30:40;;;;;;;2.83;1.73;;;18.60;99.90;;;;;;5117636;27;20442;-85
2023/08/25 09:33:08;;;;;;;4.10;1.73;;;18.70;99.90;;;;;;5117562;28;20446;-86
2023/08/25 09:35:35;;;;;;;1.30;1.20;;;18.80;99.90;;;;;;5117807;28;20481;-85
2023/08/25 09:38:03;;;;;;;3.30;1.50;;;18.80;99.90;;;;;;5117109;28;20415;-85
2023/08/25 09:40:30;;;;;;;1.80;1.03;;;18.90;99.90;;;;;;5117441;28;20445;-85
2023/08/25 09:43:00;;;;;;;1.43;1.20;;;18.90;99.90;;;;;;5117071;28;20443;-85
2023/08/25 09:45:30;;;;;;;1.13;1.03;;;18.90;99.90;;;;;;5116921;28;20483;-84
2023/08/25 09:48:07;;;;;;;2.13;1.50;;;19.10;99.90;;;;;;5116981;28;20466;-84
2023/08/25 09:50:38;;;;;;;3.00;1.03;;;19.30;99.90;;;;;;5116620;28;20900;-84
2023/08/25 09:53:06;;;;;;;1.60;1.23;;;19.40;99.90;;;;;;5117111;28;20443;-85
2023/08/25 09:55:34;;;;;;;1.40;1.30;;;19.50;99.90;;;;;;5116487;28;20455;-85
2023/08/25 09:58:04;;;;;;;2.93;1.00;;;19.70;99.90;;;;;;5116775;28;20442;-85
2023/08/25 10:00:33;;;;;;;1.33;1.23;;;19.60;99.90;;;;;;5116882;28;20446;-86
2023/08/25 10:03:01;;;;;;;1.10;1.00;;;19.70;99.90;;;;;;5116655;28;20450;-85
2023/08/25 10:05:29;;;;;;;1.33;1.23;;;19.80;99.90;;;;;;5116594;28;20486;-86
2023/08/25 10:07:58;;;;;;;6.90;1.53;;;19.70;99.90;;;;;;5116547;28;20457;-87
2023/08/25 10:10:27;;;;;;;1.53;1.33;;;19.90;99.90;;;;;;5116187;28;20443;-86
2023/08/25 10:12:57;;;;;;;1.53;1.43;;;19.90;99.90;;;;;;5116687;28;20442;-87
2023/08/25 10:15:30;;;;;;;1.40;1.30;;;20.10;99.90;;;;;;5116375;27;20478;-86
2023/08/25 10:18:01;;;;;;;1.40;0.90;;;20.20;99.90;;;;;;5116201;27;20472;-87
2023/08/25 10:20:29;;;;;;;2.10;0.90;;;20.40;99.90;;;;;;5116506;28;20423;-86
2023/08/25 10:22:58;;;;;;;1.20;1.10;;;20.50;99.90;;;;;;5116181;28;20451;-85
2023/08/25 10:25:28;;;;;;;1.20;1.10;;;20.40;99.90;;;;;;5115874;28;20485;-86
2023/08/25 10:27:56;;;;;;;1.47;1.47;;;20.40;99.90;;;;;;5116277;28;20438;-86
2023/08/25 10:30:25;;;;;;;3.23;1.77;;;20.40;99.90;;;;;;5116076;28;20439;-87
2023/08/25 10:32:55;;;;;;;2.20;1.50;;;20.40;99.90;;;;;;5116119;27;20439;-86
2023/08/25 10:35:39;;;;;;;1.67;1.40;;;20.50;99.90;;;;;;5116009;28;20451;-86
2023/08/25 10:38:22;;;;;;;1.37;1.27;;;20.50;99.90;;;;;;5115953;28;20443;-87
2023/08/25 10:40:50;;;;;;;2.43;1.53;;;20.40;99.90;;;;;;5116016;28;20427;-85
2023/08/25 10:43:24;;;;;;;1.97;1.57;;;20.30;99.90;;;;;;5115904;28;20439;-85
2023/08/25 10:45:53;;;;;;;1.60;1.47;;;20.30;99.90;;;;;;5115701;28;20543;-85
2023/08/25 10:48:20;;;;;;;1.63;1.13;;;20.40;99.90;;;;;;5115693;28;20803;-86
2023/08/25 10:50:47;;;;;;;1.40;1.30;;;20.50;99.90;;;;;;5115893;28;20454;-85
2023/08/25 10:53:34;;;;;;;2.10;1.60;;;20.50;99.90;;;;;;5116109;28;20439;-88
2023/08/25 10:56:13;;;;;;;1.93;1.33;;;20.60;99.90;;;;;;5115804;28;20451;-87
2023/08/25 10:58:40;;;;;;;1.40;1.23;;;20.70;99.90;;;;;;5115763;28;20422;-87
2023/08/25 11:01:09;;;;;;;2.10;1.80;;;20.80;99.90;;;;;;5115642;28;20450;-87
2023/08/25 11:03:48;;;;;;;1.53;1.40;;;21.00;99.90;;;;;;5115059;28;20483;-86
2023/08/25 11:06:38;;;;;;;1.20;1.20;;;21.10;99.90;;;;;;5114949;27;21006;-86
2023/08/25 11:09:05;;;;;;;1.57;1.47;;;21.00;99.90;;;;;;5115445;28;20442;-86
2023/08/25 11:11:36;;;;;;;2.20;2.00;;;21.10;99.90;;;;;;5114720;28;20450;-85
2023/08/25 11:14:03;;;;;;;1.50;1.40;;;20.90;99.90;;;;;;5115394;28;20426;-88
2023/08/25 11:16:31;;;;;;;6.93;1.80;;;20.90;99.90;;;;;;5115212;28;20463;-85
2023/08/25 11:18:58;;;;;;;2.20;1.60;;;20.80;99.90;;;;;;5115326;27;20438;-85
2023/08/25 11:21:25;;;;;;;2.10;1.53;;;20.90;99.90;;;;;;5114912;27;20431;-85
2023/08/25 11:23:53;;;;;;;2.10;1.90;;;21.00;99.90;;;;;;5114787;28;20966;-86
2023/08/25 11:26:20;;;;;;;4.83;1.63;;;21.20;99.90;;;;;;5115056;28;20483;-86
2023/08/25 11:28:50;;;;;;;1.83;1.73;;;21.50;99.90;;;;;;5114761;28;20939;-84
2023/08/25 11:31:20;;;;;;;2.10;1.97;;;21.60;99.90;;;;;;5115538;28;20446;-85
2023/08/25 11:33:50;;;;;;;5.07;1.80;;;21.60;99.90;;;;;;5114911;28;20446;-86
2023/08/25 11:36:17;;;;;;;1.53;1.40;;;21.70;99.90;;;;;;5114863;28;20968;-85
2023/08/25 11:38:48;;;;;;;1.93;1.77;;;21.80;99.90;;;;;;5114788;28;20440;-85
2023/08/25 11:41:15;;;;;;;2.80;1.70;;;21.90;99.90;;;;;;5114821;28;20434;-84
2023/08/25 11:43:43;;;;;;;1.53;1.43;;;21.90;99.90;;;;;;5114720;28;20429;-85
2023/08/25 11:46:10;;;;;;;1.70;1.60;;;21.80;99.90;;;;;;5114140;28;20835;-85
2023/08/25 11:48:37;;;;;;;1.87;1.77;;;21.90;99.90;;;;;;5114656;28;20496;-85
2023/08/25 11:51:06;;;;;;;2.30;2.00;;;21.80;99.90;;;;;;5114541;28;20439;-85
2023/08/25 11:53:32;;;;;;;1.83;1.60;;;21.90;99.90;;;;;;5114571;28;20446;-85
2023/08/25 11:56:01;;;;;;;1.80;1.70;;;22.10;99.90;;;;;;5114357;28;20466;-86
2023/08/25 11:58:32;;;;;;;2.70;1.93;;;22.30;99.90;;;;;;5114487;28;20450;-85
2023/08/25 12:01:05;;;;;;;2.03;1.87;;;22.50;99.90;;;;;;5114681;28;20200;-85
2023/08/25 12:03:32;;;;;;;2.70;2.30;;;22.60;99.90;;;;;;5114238;28;20481;-85
2023/08/25 12:06:00;;;;;;;2.30;1.93;;;22.90;99.90;;;;;;5114198;28;20550;-85
2023/08/25 12:08:28;;;;;;;1.70;1.60;;;23.20;99.90;;;;;;5114255;28;20200;-85
2023/08/25 12:10:56;;;;;;;3.00;1.77;;;23.30;99.90;;;;;;5113960;28;20290;-85
2023/08/25 12:13:29;;;;;;;2.33;1.90;;;23.30;99.90;;;;;;5114214;28;20442;-85
2023/08/25 12:15:56;;;;;;;2.83;1.40;;;23.30;99.90;;;;;;5114057;28;20220;-85
2023/08/25 12:18:23;;;;;;;1.67;1.57;;;23.40;99.90;;;;;;5114175;28;20207;-85
2023/08/25 12:20:51;;;;;;;1.27;1.20;;;23.30;99.90;;;;;;5113881;28;20693;-87
2023/08/25 12:23:17;;;;;;;2.13;2.03;;;23.20;99.90;;;;;;5113471;28;20205;-88
2023/08/25 12:25:45;;;;;;;2.37;1.60;;;23.10;99.90;;;;;;5114212;28;20685;-86
2023/08/25 12:28:12;;;;;;;4.20;2.00;;;23.00;99.90;;;;;;5114277;28;20883;-88
2023/08/25 12:30:39;;;;;;;3.03;1.70;;;23.10;99.90;;;;;;5114541;28;20193;-88
2023/08/25 12:33:06;;;;;;;2.43;1.40;;;23.10;99.90;;;;;;5114162;28;20450;-87
2023/08/25 12:35:33;;;;;;;3.10;1.43;;;23.10;99.90;;;;;;5114316;28;20216;-87
2023/08/25 12:38:00;;;;;;;1.50;1.40;;;23.10;99.90;;;;;;5114630;28;20200;-89
2023/08/25 12:40:27;;;;;;;1.33;1.23;;;23.10;99.90;;;;;;5115138;28;20211;-89
2023/08/25 12:42:55;;;;;;;1.60;1.50;;;23.00;99.90;;;;;;5114550;28;20449;-87
2023/08/25 12:45:23;;;;;;;1.87;1.77;;;23.20;99.90;;;;;;5113947;28;20704;-88
2023/08/25 12:47:50;;;;;;;1.77;1.67;;;23.30;99.90;;;;;;5114258;28;20208;-86
2023/08/25 12:50:17;;;;;;;1.73;1.63;;;23.30;99.90;;;;;;5113889;28;20204;-86
2023/08/25 12:52:44;;;;;;;2.37;1.90;;;23.40;99.90;;;;;;5113995;28;20200;-86